Terminal Aerodrome Forecast
Issued by NWS Spokane, WA

Home | Current Version | Previous Version | Text Only | Print | Product List | Glossary On
Versions: 1 2 3 4 5 6 7 8 9 10 11 12 13 14 15 16 17 18 19 20 21 22 23 24 25 26 27 28 29 30 31 32 33 34 35 36 37 38 39 40 41 42 43
022
FTUS46 KOTX 131136
TAFEAT
TAF
KEAT 131136Z 1312/1412 VRB02KT 1/2SM FG BKN003
     FM131600 29004KT 2SM BR BKN005
     FM132100 27005KT P6SM -RA SCT025 OVC100
     FM140500 24006KT 6SM BR BKN006 BKN025=

USA.gov is the U.S. government's official web portal to all federal, state and local government web resources and services.